sensor_id;sensor_type;location;lat;lon;timestamp;P1;durP1;ratioP1;P2;durP2;ratioP2
32196;SDS011;18697;42.770;23.400;2022-10-26T00:03:29;13.13;;;5.38;;
32196;SDS011;18697;42.770;23.400;2022-10-26T00:06:00;13.57;;;6.13;;
32196;SDS011;18697;42.770;23.400;2022-10-26T00:08:27;8.95;;;5.22;;
32196;SDS011;18697;42.770;23.400;2022-10-26T00:10:52;10.48;;;5.70;;
32196;SDS011;18697;42.770;23.400;2022-10-26T00:13:22;9.52;;;5.53;;
32196;SDS011;18697;42.770;23.400;2022-10-26T00:15:47;17.13;;;6.22;;
32196;SDS011;18697;42.770;23.400;2022-10-26T00:18:12;10.05;;;5.38;;
32196;SDS011;18697;42.770;23.400;2022-10-26T00:20:38;11.70;;;5.35;;
32196;SDS011;18697;42.770;23.400;2022-10-26T00:23:03;13.13;;;5.70;;
32196;SDS011;18697;42.770;23.400;2022-10-26T00:25:29;9.07;;;4.78;;
32196;SDS011;18697;42.770;23.400;2022-10-26T00:27:54;9.38;;;5.22;;
32196;SDS011;18697;42.770;23.400;2022-10-26T00:30:19;12.15;;;5.90;;
32196;SDS011;18697;42.770;23.400;2022-10-26T00:32:45;9.85;;;5.53;;
32196;SDS011;18697;42.770;23.400;2022-10-26T00:35:10;10.88;;;5.30;;
32196;SDS011;18697;42.770;23.400;2022-10-26T00:37:35;12.35;;;5.65;;
32196;SDS011;18697;42.770;23.400;2022-10-26T00:40:01;8.52;;;5.13;;
32196;SDS011;18697;42.770;23.400;2022-10-26T00:42:26;12.07;;;5.40;;
32196;SDS011;18697;42.770;23.400;2022-10-26T00:44:55;10.35;;;5.18;;
32196;SDS011;18697;42.770;23.400;2022-10-26T00:50:11;15.50;;;5.18;;
32196;SDS011;18697;42.770;23.400;2022-10-26T00:52:41;12.02;;;5.60;;
32196;SDS011;18697;42.770;23.400;2022-10-26T00:55:07;8.20;;;5.05;;
32196;SDS011;18697;42.770;23.400;2022-10-26T00:57:33;12.60;;;5.13;;
32196;SDS011;18697;42.770;23.400;2022-10-26T01:00:02;9.25;;;4.97;;
32196;SDS011;18697;42.770;23.400;2022-10-26T01:02:29;11.90;;;4.93;;
32196;SDS011;18697;42.770;23.400;2022-10-26T01:04:54;8.60;;;4.97;;
32196;SDS011;18697;42.770;23.400;2022-10-26T01:07:20;8.77;;;5.05;;
32196;SDS011;18697;42.770;23.400;2022-10-26T01:09:46;12.10;;;4.60;;
32196;SDS011;18697;42.770;23.400;2022-10-26T01:12:13;10.60;;;5.35;;
32196;SDS011;18697;42.770;23.400;2022-10-26T01:14:38;8.38;;;4.47;;
32196;SDS011;18697;42.770;23.400;2022-10-26T01:27:59;12.18;;;5.45;;
32196;SDS011;18697;42.770;23.400;2022-10-26T01:30:44;9.13;;;4.55;;
32196;SDS011;18697;42.770;23.400;2022-10-26T01:36:20;8.55;;;4.80;;
32196;SDS011;18697;42.770;23.400;2022-10-26T01:39:08;11.10;;;4.85;;
32196;SDS011;18697;42.770;23.400;2022-10-26T01:41:35;7.03;;;4.60;;
32196;SDS011;18697;42.770;23.400;2022-10-26T01:44:22;6.28;;;4.40;;
32196;SDS011;18697;42.770;23.400;2022-10-26T01:46:53;10.05;;;4.80;;
32196;SDS011;18697;42.770;23.400;2022-10-26T01:49:24;11.43;;;4.70;;
32196;SDS011;18697;42.770;23.400;2022-10-26T01:51:52;7.25;;;4.63;;
32196;SDS011;18697;42.770;23.400;2022-10-26T01:54:18;9.13;;;4.28;;
32196;SDS011;18697;42.770;23.400;2022-10-26T01:56:44;9.80;;;4.93;;
32196;SDS011;18697;42.770;23.400;2022-10-26T02:08:22;9.45;;;4.88;;
32196;SDS011;18697;42.770;23.400;2022-10-26T02:10:47;7.25;;;4.40;;
32196;SDS011;18697;42.770;23.400;2022-10-26T02:15:58;12.32;;;4.97;;
32196;SDS011;18697;42.770;23.400;2022-10-26T02:21:04;7.88;;;4.82;;
32196;SDS011;18697;42.770;23.400;2022-10-26T02:23:35;9.15;;;4.38;;
32196;SDS011;18697;42.770;23.400;2022-10-26T02:26:04;11.00;;;4.32;;
32196;SDS011;18697;42.770;23.400;2022-10-26T02:28:34;9.65;;;4.38;;
32196;SDS011;18697;42.770;23.400;2022-10-26T02:31:03;13.40;;;4.65;;
32196;SDS011;18697;42.770;23.400;2022-10-26T02:33:31;9.45;;;4.53;;
32196;SDS011;18697;42.770;23.400;2022-10-26T02:36:06;12.95;;;5.30;;
32196;SDS011;18697;42.770;23.400;2022-10-26T02:38:34;10.27;;;4.60;;
32196;SDS011;18697;42.770;23.400;2022-10-26T02:41:01;8.43;;;4.55;;
32196;SDS011;18697;42.770;23.400;2022-10-26T02:43:28;5.57;;;3.67;;
32196;SDS011;18697;42.770;23.400;2022-10-26T02:45:58;10.38;;;4.47;;
32196;SDS011;18697;42.770;23.400;2022-10-26T02:48:29;7.68;;;4.55;;
32196;SDS011;18697;42.770;23.400;2022-10-26T02:50:59;11.15;;;4.82;;
32196;SDS011;18697;42.770;23.400;2022-10-26T02:53:50;8.80;;;4.50;;
32196;SDS011;18697;42.770;23.400;2022-10-26T02:56:21;7.88;;;4.60;;
32196;SDS011;18697;42.770;23.400;2022-10-26T02:58:53;7.55;;;4.30;;
32196;SDS011;18697;42.770;23.400;2022-10-26T03:01:21;8.85;;;4.30;;
32196;SDS011;18697;42.770;23.400;2022-10-26T03:03:47;12.45;;;5.32;;
32196;SDS011;18697;42.770;23.400;2022-10-26T03:08:44;10.35;;;4.90;;
32196;SDS011;18697;42.770;23.400;2022-10-26T03:11:10;12.18;;;5.53;;
32196;SDS011;18697;42.770;23.400;2022-10-26T03:16:01;8.05;;;4.30;;
32196;SDS011;18697;42.770;23.400;2022-10-26T03:18:26;12.93;;;5.03;;
32196;SDS011;18697;42.770;23.400;2022-10-26T03:20:51;9.27;;;4.35;;
32196;SDS011;18697;42.770;23.400;2022-10-26T03:25:42;6.55;;;4.50;;
32196;SDS011;18697;42.770;23.400;2022-10-26T03:28:07;14.90;;;5.07;;
32196;SDS011;18697;42.770;23.400;2022-10-26T03:30:33;6.28;;;4.47;;
32196;SDS011;18697;42.770;23.400;2022-10-26T03:32:58;8.13;;;5.03;;
32196;SDS011;18697;42.770;23.400;2022-10-26T03:35:23;11.70;;;4.95;;
32196;SDS011;18697;42.770;23.400;2022-10-26T03:37:49;10.50;;;4.72;;
32196;SDS011;18697;42.770;23.400;2022-10-26T03:40:14;7.35;;;4.40;;
32196;SDS011;18697;42.770;23.400;2022-10-26T03:42:40;11.05;;;4.32;;
32196;SDS011;18697;42.770;23.400;2022-10-26T03:45:06;6.45;;;3.92;;
32196;SDS011;18697;42.770;23.400;2022-10-26T03:47:32;6.80;;;4.53;;
32196;SDS011;18697;42.770;23.400;2022-10-26T03:49:57;7.55;;;4.15;;
32196;SDS011;18697;42.770;23.400;2022-10-26T03:52:24;9.30;;;4.72;;
32196;SDS011;18697;42.770;23.400;2022-10-26T03:54:49;8.60;;;4.22;;
32196;SDS011;18697;42.770;23.400;2022-10-26T03:57:15;8.13;;;4.43;;
32196;SDS011;18697;42.770;23.400;2022-10-26T03:59:41;8.32;;;4.47;;
32196;SDS011;18697;42.770;23.400;2022-10-26T04:02:06;8.75;;;4.85;;
32196;SDS011;18697;42.770;23.400;2022-10-26T04:04:32;9.23;;;3.80;;
32196;SDS011;18697;42.770;23.400;2022-10-26T04:06:57;8.02;;;4.25;;
32196;SDS011;18697;42.770;23.400;2022-10-26T04:11:48;9.73;;;4.55;;
32196;SDS011;18697;42.770;23.400;2022-10-26T04:14:13;8.15;;;4.38;;
32196;SDS011;18697;42.770;23.400;2022-10-26T04:16:39;7.30;;;4.10;;
32196;SDS011;18697;42.770;23.400;2022-10-26T04:19:05;10.85;;;4.90;;
32196;SDS011;18697;42.770;23.400;2022-10-26T04:21:30;10.30;;;4.93;;
32196;SDS011;18697;42.770;23.400;2022-10-26T04:23:59;12.52;;;6.10;;
32196;SDS011;18697;42.770;23.400;2022-10-26T04:26:25;12.40;;;6.30;;
32196;SDS011;18697;42.770;23.400;2022-10-26T04:28:50;11.48;;;6.57;;
32196;SDS011;18697;42.770;23.400;2022-10-26T04:31:16;14.65;;;7.28;;
32196;SDS011;18697;42.770;23.400;2022-10-26T04:33:41;11.02;;;6.63;;
32196;SDS011;18697;42.770;23.400;2022-10-26T04:36:07;13.63;;;7.78;;
32196;SDS011;18697;42.770;23.400;2022-10-26T04:38:32;13.50;;;7.13;;
32196;SDS011;18697;42.770;23.400;2022-10-26T04:40:58;15.25;;;7.30;;
32196;SDS011;18697;42.770;23.400;2022-10-26T04:43:23;13.23;;;6.47;;
32196;SDS011;18697;42.770;23.400;2022-10-26T04:45:48;10.25;;;6.18;;
32196;SDS011;18697;42.770;23.400;2022-10-26T04:48:14;9.82;;;6.50;;
32196;SDS011;18697;42.770;23.400;2022-10-26T04:50:39;10.15;;;6.63;;
32196;SDS011;18697;42.770;23.400;2022-10-26T04:53:06;14.73;;;7.35;;
32196;SDS011;18697;42.770;23.400;2022-10-26T04:55:32;11.73;;;7.45;;
32196;SDS011;18697;42.770;23.400;2022-10-26T04:57:58;14.30;;;6.38;;
32196;SDS011;18697;42.770;23.400;2022-10-26T05:00:24;16.63;;;6.57;;
32196;SDS011;18697;42.770;23.400;2022-10-26T05:02:50;12.90;;;5.90;;
32196;SDS011;18697;42.770;23.400;2022-10-26T05:05:16;12.40;;;6.25;;
32196;SDS011;18697;42.770;23.400;2022-10-26T05:07:41;11.35;;;5.95;;
32196;SDS011;18697;42.770;23.400;2022-10-26T05:10:07;16.45;;;6.63;;
32196;SDS011;18697;42.770;23.400;2022-10-26T05:12:33;17.42;;;6.38;;
32196;SDS011;18697;42.770;23.400;2022-10-26T05:14:58;13.77;;;6.85;;
32196;SDS011;18697;42.770;23.400;2022-10-26T05:17:26;15.10;;;5.97;;
32196;SDS011;18697;42.770;23.400;2022-10-26T05:19:52;12.15;;;6.10;;
32196;SDS011;18697;42.770;23.400;2022-10-26T05:22:28;14.77;;;5.68;;
32196;SDS011;18697;42.770;23.400;2022-10-26T05:24:54;12.75;;;6.30;;
32196;SDS011;18697;42.770;23.400;2022-10-26T05:27:19;19.50;;;7.60;;
32196;SDS011;18697;42.770;23.400;2022-10-26T05:29:44;15.93;;;6.45;;
32196;SDS011;18697;42.770;23.400;2022-10-26T05:32:10;14.85;;;8.70;;
32196;SDS011;18697;42.770;23.400;2022-10-26T05:34:35;19.58;;;9.90;;
32196;SDS011;18697;42.770;23.400;2022-10-26T05:37:00;22.10;;;11.85;;
32196;SDS011;18697;42.770;23.400;2022-10-26T05:39:26;20.80;;;12.15;;
32196;SDS011;18697;42.770;23.400;2022-10-26T05:41:51;18.42;;;11.27;;
32196;SDS011;18697;42.770;23.400;2022-10-26T05:44:16;13.07;;;9.18;;
32196;SDS011;18697;42.770;23.400;2022-10-26T05:46:42;17.85;;;8.93;;
32196;SDS011;18697;42.770;23.400;2022-10-26T05:49:07;19.08;;;9.68;;
32196;SDS011;18697;42.770;23.400;2022-10-26T05:51:33;22.38;;;10.55;;
32196;SDS011;18697;42.770;23.400;2022-10-26T05:54:01;16.25;;;8.85;;
32196;SDS011;18697;42.770;23.400;2022-10-26T05:56:32;18.08;;;8.57;;
32196;SDS011;18697;42.770;23.400;2022-10-26T05:59:00;12.05;;;8.30;;
32196;SDS011;18697;42.770;23.400;2022-10-26T06:04:29;18.23;;;9.80;;
32196;SDS011;18697;42.770;23.400;2022-10-26T06:07:01;21.42;;;10.15;;
32196;SDS011;18697;42.770;23.400;2022-10-26T06:09:27;22.50;;;10.60;;
32196;SDS011;18697;42.770;23.400;2022-10-26T06:11:53;13.50;;;9.68;;
32196;SDS011;18697;42.770;23.400;2022-10-26T06:14:18;15.27;;;9.13;;
32196;SDS011;18697;42.770;23.400;2022-10-26T06:32:31;18.55;;;10.15;;
32196;SDS011;18697;42.770;23.400;2022-10-26T06:37:41;19.70;;;11.32;;
32196;SDS011;18697;42.770;23.400;2022-10-26T06:40:09;19.15;;;10.48;;
32196;SDS011;18697;42.770;23.400;2022-10-26T06:42:37;27.33;;;15.60;;
32196;SDS011;18697;42.770;23.400;2022-10-26T06:45:03;29.45;;;19.90;;
32196;SDS011;18697;42.770;23.400;2022-10-26T06:47:35;27.40;;;20.02;;
32196;SDS011;18697;42.770;23.400;2022-10-26T06:55:24;23.30;;;11.57;;
32196;SDS011;18697;42.770;23.400;2022-10-26T06:57:51;30.00;;;15.00;;
32196;SDS011;18697;42.770;23.400;2022-10-26T07:00:21;20.67;;;15.73;;
32196;SDS011;18697;42.770;23.400;2022-10-26T07:02:48;21.63;;;14.32;;
32196;SDS011;18697;42.770;23.400;2022-10-26T07:05:13;20.02;;;12.55;;
32196;SDS011;18697;42.770;23.400;2022-10-26T07:07:39;17.38;;;13.82;;
32196;SDS011;18697;42.770;23.400;2022-10-26T07:10:07;17.25;;;12.85;;
32196;SDS011;18697;42.770;23.400;2022-10-26T07:12:34;17.77;;;11.27;;
32196;SDS011;18697;42.770;23.400;2022-10-26T07:15:00;15.00;;;11.38;;
32196;SDS011;18697;42.770;23.400;2022-10-26T07:17:25;16.00;;;8.10;;
32196;SDS011;18697;42.770;23.400;2022-10-26T07:19:52;21.08;;;10.52;;
32196;SDS011;18697;42.770;23.400;2022-10-26T07:22:18;15.30;;;10.43;;
32196;SDS011;18697;42.770;23.400;2022-10-26T07:24:43;12.18;;;8.18;;
32196;SDS011;18697;42.770;23.400;2022-10-26T07:27:09;17.13;;;8.07;;
32196;SDS011;18697;42.770;23.400;2022-10-26T07:29:34;13.63;;;6.93;;
32196;SDS011;18697;42.770;23.400;2022-10-26T07:31:59;16.35;;;7.15;;
32196;SDS011;18697;42.770;23.400;2022-10-26T07:34:25;15.85;;;10.35;;
32196;SDS011;18697;42.770;23.400;2022-10-26T07:36:51;16.00;;;10.75;;
32196;SDS011;18697;42.770;23.400;2022-10-26T07:39:16;13.73;;;10.35;;
32196;SDS011;18697;42.770;23.400;2022-10-26T07:41:41;13.15;;;6.90;;
32196;SDS011;18697;42.770;23.400;2022-10-26T07:44:09;15.10;;;6.75;;
32196;SDS011;18697;42.770;23.400;2022-10-26T07:46:34;14.35;;;10.18;;
32196;SDS011;18697;42.770;23.400;2022-10-26T07:49:00;14.65;;;6.88;;
32196;SDS011;18697;42.770;23.400;2022-10-26T07:51:25;16.40;;;10.50;;
32196;SDS011;18697;42.770;23.400;2022-10-26T07:53:51;16.08;;;10.82;;
32196;SDS011;18697;42.770;23.400;2022-10-26T07:56:16;13.52;;;9.00;;
32196;SDS011;18697;42.770;23.400;2022-10-26T07:58:42;12.00;;;9.57;;
32196;SDS011;18697;42.770;23.400;2022-10-26T08:01:08;15.20;;;9.85;;
32196;SDS011;18697;42.770;23.400;2022-10-26T08:03:36;11.13;;;6.63;;
32196;SDS011;18697;42.770;23.400;2022-10-26T08:06:01;11.63;;;9.82;;
32196;SDS011;18697;42.770;23.400;2022-10-26T08:08:28;11.50;;;8.50;;
32196;SDS011;18697;42.770;23.400;2022-10-26T08:10:54;13.93;;;8.18;;
32196;SDS011;18697;42.770;23.400;2022-10-26T08:13:19;10.68;;;5.28;;
32196;SDS011;18697;42.770;23.400;2022-10-26T08:15:45;14.43;;;8.60;;
32196;SDS011;18697;42.770;23.400;2022-10-26T08:18:11;14.25;;;10.38;;
32196;SDS011;18697;42.770;23.400;2022-10-26T08:20:37;15.13;;;10.75;;
32196;SDS011;18697;42.770;23.400;2022-10-26T08:23:02;15.85;;;10.60;;
32196;SDS011;18697;42.770;23.400;2022-10-26T08:25:30;14.75;;;10.05;;
32196;SDS011;18697;42.770;23.400;2022-10-26T08:27:59;12.00;;;6.63;;
32196;SDS011;18697;42.770;23.400;2022-10-26T08:30:26;9.43;;;5.20;;
32196;SDS011;18697;42.770;23.400;2022-10-26T08:33:02;13.65;;;11.35;;
32196;SDS011;18697;42.770;23.400;2022-10-26T08:35:29;7.82;;;4.68;;
32196;SDS011;18697;42.770;23.400;2022-10-26T08:37:55;13.15;;;9.93;;
32196;SDS011;18697;42.770;23.400;2022-10-26T08:40:30;14.07;;;10.68;;
32196;SDS011;18697;42.770;23.400;2022-10-26T08:43:01;10.90;;;7.45;;
32196;SDS011;18697;42.770;23.400;2022-10-26T08:45:38;12.30;;;4.53;;
32196;SDS011;18697;42.770;23.400;2022-10-26T08:48:09;8.05;;;4.60;;
32196;SDS011;18697;42.770;23.400;2022-10-26T08:50:44;12.60;;;9.10;;
32196;SDS011;18697;42.770;23.400;2022-10-26T08:53:58;5.65;;;3.90;;
32196;SDS011;18697;42.770;23.400;2022-10-26T08:56:17;6.57;;;4.22;;
32196;SDS011;18697;42.770;23.400;2022-10-26T08:58:49;10.70;;;8.80;;
32196;SDS011;18697;42.770;23.400;2022-10-26T09:01:46;4.60;;;4.00;;
32196;SDS011;18697;42.770;23.400;2022-10-26T09:04:12;12.82;;;8.05;;
32196;SDS011;18697;42.770;23.400;2022-10-26T09:06:45;9.65;;;3.65;;
32196;SDS011;18697;42.770;23.400;2022-10-26T09:09:19;4.22;;;3.40;;
32196;SDS011;18697;42.770;23.400;2022-10-26T09:29:00;131.27;;;48.90;;
32196;SDS011;18697;42.770;23.400;2022-10-26T09:31:27;90.95;;;34.70;;
32196;SDS011;18697;42.770;23.400;2022-10-26T09:33:56;80.07;;;36.00;;
32196;SDS011;18697;42.770;23.400;2022-10-26T09:36:26;5.45;;;3.80;;
32196;SDS011;18697;42.770;23.400;2022-10-26T09:44:54;25.80;;;11.43;;
32196;SDS011;18697;42.770;23.400;2022-10-26T09:49:51;22.75;;;10.43;;
32196;SDS011;18697;42.770;23.400;2022-10-26T09:52:20;16.33;;;7.40;;
32196;SDS011;18697;42.770;23.400;2022-10-26T09:54:46;17.33;;;8.48;;
32196;SDS011;18697;42.770;23.400;2022-10-26T09:57:14;30.38;;;15.27;;
32196;SDS011;18697;42.770;23.400;2022-10-26T09:59:42;25.75;;;9.52;;
32196;SDS011;18697;42.770;23.400;2022-10-26T10:13:23;8.57;;;4.90;;
32196;SDS011;18697;42.770;23.400;2022-10-26T10:15:54;7.15;;;3.15;;
32196;SDS011;18697;42.770;23.400;2022-10-26T10:18:26;3.28;;;2.05;;
32196;SDS011;18697;42.770;23.400;2022-10-26T10:20:53;11.38;;;6.13;;
32196;SDS011;18697;42.770;23.400;2022-10-26T10:23:31;9.88;;;5.65;;
32196;SDS011;18697;42.770;23.400;2022-10-26T10:26:17;5.30;;;1.75;;
32196;SDS011;18697;42.770;23.400;2022-10-26T10:28:42;14.10;;;8.02;;
32196;SDS011;18697;42.770;23.400;2022-10-26T10:31:22;5.97;;;3.03;;
32196;SDS011;18697;42.770;23.400;2022-10-26T10:33:52;3.55;;;2.03;;
32196;SDS011;18697;42.770;23.400;2022-10-26T10:36:19;7.03;;;3.90;;
32196;SDS011;18697;42.770;23.400;2022-10-26T10:38:46;4.47;;;1.95;;
32196;SDS011;18697;42.770;23.400;2022-10-26T10:41:27;7.25;;;3.70;;
32196;SDS011;18697;42.770;23.400;2022-10-26T10:46:46;6.97;;;4.30;;
32196;SDS011;18697;42.770;23.400;2022-10-26T10:49:30;7.13;;;3.92;;
32196;SDS011;18697;42.770;23.400;2022-10-26T10:51:56;5.55;;;1.88;;
32196;SDS011;18697;42.770;23.400;2022-10-26T10:54:29;2.95;;;1.30;;
32196;SDS011;18697;42.770;23.400;2022-10-26T10:59:40;3.65;;;1.23;;
32196;SDS011;18697;42.770;23.400;2022-10-26T11:07:28;8.65;;;3.67;;
32196;SDS011;18697;42.770;23.400;2022-10-26T11:09:59;3.65;;;1.27;;
32196;SDS011;18697;42.770;23.400;2022-10-26T11:12:31;3.42;;;1.23;;
32196;SDS011;18697;42.770;23.400;2022-10-26T11:15:13;2.78;;;2.15;;
32196;SDS011;18697;42.770;23.400;2022-10-26T11:17:51;3.30;;;1.85;;
32196;SDS011;18697;42.770;23.400;2022-10-26T11:20:25;2.75;;;1.42;;
32196;SDS011;18697;42.770;23.400;2022-10-26T11:25:19;1.55;;;1.02;;
32196;SDS011;18697;42.770;23.400;2022-10-26T11:27:58;6.25;;;2.80;;
32196;SDS011;18697;42.770;23.400;2022-10-26T11:30:28;1.38;;;0.90;;
32196;SDS011;18697;42.770;23.400;2022-10-26T11:35:31;3.83;;;1.38;;
32196;SDS011;18697;42.770;23.400;2022-10-26T11:38:03;6.35;;;2.25;;
32196;SDS011;18697;42.770;23.400;2022-10-26T11:40:34;4.05;;;1.40;;
32196;SDS011;18697;42.770;23.400;2022-10-26T11:45:43;4.90;;;1.23;;
32196;SDS011;18697;42.770;23.400;2022-10-26T11:48:18;3.33;;;1.48;;
32196;SDS011;18697;42.770;23.400;2022-10-26T11:50:55;6.05;;;1.55;;
32196;SDS011;18697;42.770;23.400;2022-10-26T11:53:24;2.15;;;1.70;;
32196;SDS011;18697;42.770;23.400;2022-10-26T11:55:54;3.05;;;1.83;;
32196;SDS011;18697;42.770;23.400;2022-10-26T11:58:22;3.08;;;1.92;;
32196;SDS011;18697;42.770;23.400;2022-10-26T12:01:03;3.47;;;1.98;;
32196;SDS011;18697;42.770;23.400;2022-10-26T12:03:35;3.95;;;2.25;;
32196;SDS011;18697;42.770;23.400;2022-10-26T12:06:07;2.53;;;1.55;;
32196;SDS011;18697;42.770;23.400;2022-10-26T12:08:41;4.32;;;1.17;;
32196;SDS011;18697;42.770;23.400;2022-10-26T12:13:52;4.72;;;1.30;;
32196;SDS011;18697;42.770;23.400;2022-10-26T12:19:12;2.75;;;0.85;;
32196;SDS011;18697;42.770;23.400;2022-10-26T12:21:44;3.88;;;1.85;;
32196;SDS011;18697;42.770;23.400;2022-10-26T12:29:35;3.05;;;0.90;;
32196;SDS011;18697;42.770;23.400;2022-10-26T12:32:03;3.28;;;1.38;;
32196;SDS011;18697;42.770;23.400;2022-10-26T12:39:45;1.17;;;0.88;;
32196;SDS011;18697;42.770;23.400;2022-10-26T12:44:40;1.33;;;1.02;;
32196;SDS011;18697;42.770;23.400;2022-10-26T12:49:58;4.88;;;2.75;;
32196;SDS011;18697;42.770;23.400;2022-10-26T13:00:24;4.10;;;2.97;;
32196;SDS011;18697;42.770;23.400;2022-10-26T13:08:03;3.75;;;2.75;;
32196;SDS011;18697;42.770;23.400;2022-10-26T13:10:32;3.20;;;1.15;;
32196;SDS011;18697;42.770;23.400;2022-10-26T13:12:59;5.32;;;2.22;;
32196;SDS011;18697;42.770;23.400;2022-10-26T13:17:59;2.92;;;1.75;;
32196;SDS011;18697;42.770;23.400;2022-10-26T13:20:31;1.50;;;1.17;;
32196;SDS011;18697;42.770;23.400;2022-10-26T13:23:00;5.45;;;2.08;;
32196;SDS011;18697;42.770;23.400;2022-10-26T13:25:27;3.50;;;1.95;;
32196;SDS011;18697;42.770;23.400;2022-10-26T13:28:03;3.65;;;1.17;;
32196;SDS011;18697;42.770;23.400;2022-10-26T13:32:58;2.97;;;2.05;;
32196;SDS011;18697;42.770;23.400;2022-10-26T13:35:25;3.50;;;1.30;;
32196;SDS011;18697;42.770;23.400;2022-10-26T13:37:52;2.47;;;2.28;;
32196;SDS011;18697;42.770;23.400;2022-10-26T13:40:21;4.90;;;0.77;;
32196;SDS011;18697;42.770;23.400;2022-10-26T13:42:51;2.00;;;0.57;;
32196;SDS011;18697;42.770;23.400;2022-10-26T13:45:20;2.40;;;1.20;;
32196;SDS011;18697;42.770;23.400;2022-10-26T13:47:58;3.10;;;1.63;;
32196;SDS011;18697;42.770;23.400;2022-10-26T13:50:36;0.68;;;0.68;;
32196;SDS011;18697;42.770;23.400;2022-10-26T13:53:13;1.02;;;0.52;;
32196;SDS011;18697;42.770;23.400;2022-10-26T13:55:52;2.33;;;1.83;;
32196;SDS011;18697;42.770;23.400;2022-10-26T13:58:40;2.50;;;1.02;;
32196;SDS011;18697;42.770;23.400;2022-10-26T14:01:14;4.47;;;2.90;;
32196;SDS011;18697;42.770;23.400;2022-10-26T14:03:42;5.38;;;2.10;;
32196;SDS011;18697;42.770;23.400;2022-10-26T14:08:49;0.73;;;0.50;;
32196;SDS011;18697;42.770;23.400;2022-10-26T14:11:18;4.97;;;1.75;;
32196;SDS011;18697;42.770;23.400;2022-10-26T14:13:47;2.40;;;1.40;;
32196;SDS011;18697;42.770;23.400;2022-10-26T14:16:15;1.55;;;0.70;;
32196;SDS011;18697;42.770;23.400;2022-10-26T14:18:45;2.38;;;1.58;;
32196;SDS011;18697;42.770;23.400;2022-10-26T14:21:13;2.95;;;1.48;;
32196;SDS011;18697;42.770;23.400;2022-10-26T14:26:27;1.25;;;0.80;;
32196;SDS011;18697;42.770;23.400;2022-10-26T14:28:55;2.35;;;1.20;;
32196;SDS011;18697;42.770;23.400;2022-10-26T14:31:25;1.08;;;0.52;;
32196;SDS011;18697;42.770;23.400;2022-10-26T14:33:55;1.88;;;1.42;;
32196;SDS011;18697;42.770;23.400;2022-10-26T14:36:30;4.25;;;1.38;;
32196;SDS011;18697;42.770;23.400;2022-10-26T14:39:02;0.43;;;0.43;;
32196;SDS011;18697;42.770;23.400;2022-10-26T14:41:38;3.10;;;1.15;;
32196;SDS011;18697;42.770;23.400;2022-10-26T14:44:04;1.25;;;1.05;;
32196;SDS011;18697;42.770;23.400;2022-10-26T14:46:41;1.35;;;1.20;;
32196;SDS011;18697;42.770;23.400;2022-10-26T14:49:11;2.85;;;1.75;;
32196;SDS011;18697;42.770;23.400;2022-10-26T14:51:55;3.65;;;1.13;;
32196;SDS011;18697;42.770;23.400;2022-10-26T14:54:23;6.68;;;1.30;;
32196;SDS011;18697;42.770;23.400;2022-10-26T14:56:50;2.97;;;2.03;;
32196;SDS011;18697;42.770;23.400;2022-10-26T14:59:23;4.55;;;2.10;;
32196;SDS011;18697;42.770;23.400;2022-10-26T15:01:54;5.10;;;2.70;;
32196;SDS011;18697;42.770;23.400;2022-10-26T15:07:32;4.80;;;3.20;;
32196;SDS011;18697;42.770;23.400;2022-10-26T15:09:47;5.75;;;3.40;;
32196;SDS011;18697;42.770;23.400;2022-10-26T15:12:30;7.05;;;3.17;;
32196;SDS011;18697;42.770;23.400;2022-10-26T15:17:39;3.20;;;1.80;;
32196;SDS011;18697;42.770;23.400;2022-10-26T15:20:07;5.53;;;2.65;;
32196;SDS011;18697;42.770;23.400;2022-10-26T15:22:41;5.07;;;2.00;;
32196;SDS011;18697;42.770;23.400;2022-10-26T15:25:13;7.70;;;2.67;;
32196;SDS011;18697;42.770;23.400;2022-10-26T15:27:44;4.47;;;2.13;;
32196;SDS011;18697;42.770;23.400;2022-10-26T15:30:17;4.70;;;1.67;;
32196;SDS011;18697;42.770;23.400;2022-10-26T15:32:43;6.60;;;3.97;;
32196;SDS011;18697;42.770;23.400;2022-10-26T15:37:47;7.50;;;3.97;;
32196;SDS011;18697;42.770;23.400;2022-10-26T15:40:14;6.50;;;2.40;;
32196;SDS011;18697;42.770;23.400;2022-10-26T15:42:40;27.60;;;11.25;;
32196;SDS011;18697;42.770;23.400;2022-10-26T15:47:43;23.98;;;14.35;;
32196;SDS011;18697;42.770;23.400;2022-10-26T15:50:13;13.18;;;9.32;;
32196;SDS011;18697;42.770;23.400;2022-10-26T15:52:40;21.88;;;11.05;;
32196;SDS011;18697;42.770;23.400;2022-10-26T15:55:05;19.50;;;11.30;;
32196;SDS011;18697;42.770;23.400;2022-10-26T15:57:31;14.38;;;9.60;;
32196;SDS011;18697;42.770;23.400;2022-10-26T15:59:57;12.90;;;9.32;;
32196;SDS011;18697;42.770;23.400;2022-10-26T16:02:22;15.27;;;8.50;;
32196;SDS011;18697;42.770;23.400;2022-10-26T16:04:47;15.32;;;10.02;;
32196;SDS011;18697;42.770;23.400;2022-10-26T16:07:13;20.38;;;7.32;;
32196;SDS011;18697;42.770;23.400;2022-10-26T16:09:40;11.50;;;6.28;;
32196;SDS011;18697;42.770;23.400;2022-10-26T16:12:10;8.50;;;4.50;;
32196;SDS011;18697;42.770;23.400;2022-10-26T16:14:37;8.57;;;4.35;;
32196;SDS011;18697;42.770;23.400;2022-10-26T16:17:03;6.00;;;2.22;;
32196;SDS011;18697;42.770;23.400;2022-10-26T16:19:28;17.23;;;6.50;;
32196;SDS011;18697;42.770;23.400;2022-10-26T16:21:54;3.13;;;1.58;;
32196;SDS011;18697;42.770;23.400;2022-10-26T16:24:19;4.00;;;2.45;;
32196;SDS011;18697;42.770;23.400;2022-10-26T16:26:45;3.38;;;1.77;;
32196;SDS011;18697;42.770;23.400;2022-10-26T16:29:10;11.15;;;6.88;;
32196;SDS011;18697;42.770;23.400;2022-10-26T16:31:35;4.13;;;1.80;;
32196;SDS011;18697;42.770;23.400;2022-10-26T16:34:01;5.80;;;4.55;;
32196;SDS011;18697;42.770;23.400;2022-10-26T16:36:26;12.18;;;7.63;;
32196;SDS011;18697;42.770;23.400;2022-10-26T16:38:52;7.25;;;4.28;;
32196;SDS011;18697;42.770;23.400;2022-10-26T16:41:17;9.90;;;6.63;;
32196;SDS011;18697;42.770;23.400;2022-10-26T16:43:43;1.80;;;1.20;;
32196;SDS011;18697;42.770;23.400;2022-10-26T16:46:11;7.97;;;4.38;;
32196;SDS011;18697;42.770;23.400;2022-10-26T16:48:38;10.35;;;5.75;;
32196;SDS011;18697;42.770;23.400;2022-10-26T16:51:06;9.93;;;5.80;;
32196;SDS011;18697;42.770;23.400;2022-10-26T16:53:45;8.05;;;5.10;;
32196;SDS011;18697;42.770;23.400;2022-10-26T16:56:16;8.68;;;5.70;;
32196;SDS011;18697;42.770;23.400;2022-10-26T16:58:43;5.47;;;2.90;;
32196;SDS011;18697;42.770;23.400;2022-10-26T17:01:10;7.20;;;4.43;;
32196;SDS011;18697;42.770;23.400;2022-10-26T17:03:37;4.60;;;3.05;;
32196;SDS011;18697;42.770;23.400;2022-10-26T17:06:04;4.88;;;3.70;;
32196;SDS011;18697;42.770;23.400;2022-10-26T17:08:31;12.25;;;5.90;;
32196;SDS011;18697;42.770;23.400;2022-10-26T17:11:06;12.52;;;4.85;;
32196;SDS011;18697;42.770;23.400;2022-10-26T17:13:36;7.40;;;3.92;;
32196;SDS011;18697;42.770;23.400;2022-10-26T17:16:03;5.82;;;3.25;;
32196;SDS011;18697;42.770;23.400;2022-10-26T17:18:30;5.28;;;3.13;;
32196;SDS011;18697;42.770;23.400;2022-10-26T17:20:55;7.68;;;3.22;;
32196;SDS011;18697;42.770;23.400;2022-10-26T17:23:21;2.90;;;2.13;;
32196;SDS011;18697;42.770;23.400;2022-10-26T17:25:46;0.80;;;0.80;;
32196;SDS011;18697;42.770;23.400;2022-10-26T17:28:12;2.13;;;1.33;;
32196;SDS011;18697;42.770;23.400;2022-10-26T17:30:37;5.35;;;2.53;;
32196;SDS011;18697;42.770;23.400;2022-10-26T17:33:04;3.80;;;2.90;;
32196;SDS011;18697;42.770;23.400;2022-10-26T17:35:30;4.82;;;2.97;;